Terminal Aerodrome Forecast
Issued by NWS

Home | Current Version | Previous Version | Text Only | Print | Product List | Glossary On
Versions: 1 2 3 4 5 6 7 8 9 10 11 12
000
FTUS45 KRIW 222300
TAFBPI
TAF
KBPI 222332Z 2300/2324 34014G20KT P6SM -SHSN SCT011 BKN050
      TEMPO 2300/2301 2SM -SN BR SCT007 BKN011
     FM230200 34010G17KT P6SM SCT060
     FM231500 VRB06KT P6SM SCT200=

USA.gov is the U.S. government's official web portal to all federal, state and local government web resources and services.